Time;durP1;ratioP1;P1;durP2;ratioP2;P2;SDS_P1;SDS_P2;PMS_P1;PMS_P2;Temp;Humidity;BMP_temperature;BMP_pressure;BME280_temperature;BME280_humidity;BME280_pressure;Samples;Min_cycle;Max_cycle;Signal;HPM_P1;HPM_P2
2024/04/23 00:01:10;;;;;;;3.97;3.10;;;11.10;85.30;;;;;;5362925;26;20450;-72
2024/04/23 00:03:39;;;;;;;4.03;3.60;;;11.10;85.30;;;;;;5357117;26;20483;-71
2024/04/23 00:06:17;;;;;;;4.00;3.60;;;11.10;85.30;;;;;;5355872;26;20477;-71
2024/04/23 00:08:48;;;;;;;4.63;4.13;;;11.10;85.20;;;;;;5328776;26;21122;-71
2024/04/23 00:11:14;;;;;;;4.50;3.60;;;11.00;85.10;;;;;;5341665;26;21074;-72
2024/04/23 00:13:42;;;;;;;4.50;3.50;;;11.00;85.10;;;;;;5350253;26;20471;-71
2024/04/23 00:16:08;;;;;;;4.13;3.60;;;11.00;85.10;;;;;;5362130;26;20531;-72
2024/04/23 00:18:34;;;;;;;4.87;3.63;;;11.00;85.10;;;;;;5363002;26;21421;-71
2024/04/23 00:21:12;;;;;;;3.80;3.40;;;11.00;85.10;;;;;;5388164;26;20586;-70
2024/04/23 00:23:41;;;;;;;4.37;3.60;;;11.00;85.00;;;;;;5394706;26;20459;-72
2024/04/23 00:26:07;;;;;;;4.33;3.93;;;11.00;85.00;;;;;;5334248;26;20525;-70
2024/04/23 00:28:39;;;;;;;4.80;3.63;;;11.00;85.00;;;;;;5349551;26;20641;-72
2024/04/23 00:31:07;;;;;;;4.30;3.90;;;11.00;85.00;;;;;;5355105;26;20444;-70
2024/04/23 00:33:36;;;;;;;4.27;3.70;;;11.00;85.00;;;;;;5361490;26;20506;-70
2024/04/23 00:36:03;;;;;;;3.93;3.47;;;10.90;84.80;;;;;;5384598;26;20517;-71
2024/04/23 00:38:29;;;;;;;3.53;3.23;;;10.90;84.80;;;;;;5352021;26;21438;-71
2024/04/23 00:40:58;;;;;;;4.40;3.60;;;10.90;84.90;;;;;;5349639;26;21332;-70
2024/04/23 00:43:31;;;;;;;3.20;2.90;;;10.90;84.90;;;;;;5362581;26;20463;-72
2024/04/23 00:46:00;;;;;;;4.10;3.57;;;10.90;84.90;;;;;;5386069;26;20524;-70
2024/04/23 00:48:43;;;;;;;4.23;3.80;;;10.90;84.90;;;;;;5332910;26;20526;-69
2024/04/23 00:51:09;;;;;;;4.60;3.87;;;10.80;84.80;;;;;;5359247;26;20506;-71
2024/04/23 00:53:57;;;;;;;4.33;3.93;;;10.90;84.90;;;;;;5340622;26;21438;-71
2024/04/23 00:56:24;;;;;;;5.20;3.97;;;10.80;84.80;;;;;;5359629;26;20463;-71
2024/04/23 00:59:02;;;;;;;4.67;3.67;;;10.80;84.90;;;;;;5392411;26;20962;-70
2024/04/23 01:01:29;;;;;;;4.00;3.37;;;10.80;84.90;;;;;;5367743;26;20475;-70
2024/04/23 01:03:58;;;;;;;4.90;3.80;;;10.80;84.90;;;;;;5357632;26;20466;-70
2024/04/23 01:06:25;;;;;;;4.40;3.60;;;10.80;84.90;;;;;;5342797;26;20551;-69
2024/04/23 01:08:54;;;;;;;4.00;3.63;;;10.80;84.90;;;;;;5363035;26;20595;-72
2024/04/23 01:11:23;;;;;;;4.90;4.03;;;10.80;84.80;;;;;;5373940;26;21003;-71
2024/04/23 01:13:53;;;;;;;5.13;3.77;;;10.80;84.80;;;;;;5363533;26;20495;-71
2024/04/23 01:16:32;;;;;;;5.67;4.40;;;10.70;84.70;;;;;;5396525;26;20460;-70
2024/04/23 01:19:04;;;;;;;4.37;3.60;;;10.70;84.60;;;;;;5363981;26;21046;-70
2024/04/23 01:22:10;;;;;;;5.20;4.10;;;10.70;84.60;;;;;;5350384;26;20972;-71
2024/04/23 01:24:55;;;;;;;4.80;3.80;;;10.70;84.50;;;;;;5324955;26;20451;-71
2024/04/23 01:27:28;;;;;;;4.07;3.73;;;10.70;84.60;;;;;;5376907;26;20536;-72
2024/04/23 01:30:00;;;;;;;5.07;4.13;;;10.70;84.60;;;;;;5364327;26;20500;-70
2024/04/23 01:32:37;;;;;;;4.53;3.77;;;10.70;84.60;;;;;;5362651;26;20471;-71
2024/04/23 01:35:04;;;;;;;6.07;3.70;;;10.70;84.60;;;;;;5376557;26;20767;-71
2024/04/23 01:37:37;;;;;;;8.87;4.70;;;10.60;84.40;;;;;;5388638;26;21083;-69
2024/04/23 01:40:17;;;;;;;5.63;3.97;;;10.60;84.30;;;;;;5337565;26;20515;-70
2024/04/23 01:42:44;;;;;;;5.07;3.53;;;10.70;84.50;;;;;;5333500;26;20455;-71
2024/04/23 01:45:17;;;;;;;3.70;3.30;;;10.60;84.40;;;;;;5363253;26;20455;-71
2024/04/23 01:47:48;;;;;;;4.10;3.70;;;10.60;84.30;;;;;;5394083;26;21677;-71
2024/04/23 01:50:15;;;;;;;4.80;4.17;;;10.60;84.30;;;;;;5303002;26;20467;-71
2024/04/23 01:52:45;;;;;;;4.07;3.57;;;10.60;84.30;;;;;;5355594;26;21209;-70
2024/04/23 01:55:16;;;;;;;4.60;4.10;;;10.60;84.30;;;;;;5392495;26;21153;-71
2024/04/23 01:57:56;;;;;;;4.27;3.67;;;10.60;84.40;;;;;;5337538;26;21226;-70
2024/04/23 02:00:28;;;;;;;3.97;3.57;;;10.50;84.20;;;;;;5344055;26;20466;-71
2024/04/23 02:03:00;;;;;;;4.53;3.77;;;10.50;84.20;;;;;;5318525;26;20553;-71
2024/04/23 02:05:27;;;;;;;4.00;3.40;;;10.50;84.20;;;;;;5320151;26;20455;-72
2024/04/23 02:07:56;;;;;;;5.00;3.97;;;10.50;84.20;;;;;;5385953;26;20476;-70
2024/04/23 02:10:25;;;;;;;5.90;4.07;;;10.50;84.20;;;;;;5321574;26;20526;-70
2024/04/23 02:12:57;;;;;;;5.10;4.40;;;10.50;84.20;;;;;;5363708;26;21604;-72
2024/04/23 02:15:23;;;;;;;4.73;4.10;;;10.50;84.20;;;;;;5391097;26;20463;-70
2024/04/23 02:17:56;;;;;;;4.80;4.00;;;10.50;84.20;;;;;;5359416;26;20508;-72
2024/04/23 02:20:25;;;;;;;4.43;3.83;;;10.50;84.20;;;;;;5389247;26;20515;-71
2024/04/23 02:22:51;;;;;;;4.40;4.00;;;10.40;84.10;;;;;;5357093;26;21005;-70
2024/04/23 02:25:23;;;;;;;5.53;4.13;;;10.40;84.00;;;;;;5353763;26;20505;-71
2024/04/23 02:27:51;;;;;;;4.20;3.80;;;10.40;84.10;;;;;;5357231;26;20942;-71
2024/04/23 02:30:20;;;;;;;4.37;3.97;;;10.40;84.00;;;;;;5329825;26;20525;-70
2024/04/23 02:32:49;;;;;;;5.53;4.43;;;10.40;84.00;;;;;;5360872;26;20471;-70
2024/04/23 02:35:15;;;;;;;4.80;4.17;;;10.40;84.00;;;;;;5348068;26;20550;-72
2024/04/23 02:37:41;;;;;;;4.40;3.97;;;10.40;84.00;;;;;;5321087;26;20479;-70
2024/04/23 02:40:10;;;;;;;4.50;3.87;;;10.30;83.80;;;;;;5359487;26;20468;-71
2024/04/23 02:42:53;;;;;;;4.23;3.80;;;10.40;84.00;;;;;;5357378;26;20511;-71
2024/04/23 02:45:25;;;;;;;4.70;3.80;;;10.30;83.80;;;;;;5350733;26;20466;-70
2024/04/23 02:47:54;;;;;;;4.63;3.90;;;10.30;83.80;;;;;;5394304;26;20504;-72
2024/04/23 02:50:25;;;;;;;5.10;3.87;;;10.30;83.80;;;;;;5394108;26;20871;-71
2024/04/23 02:52:51;;;;;;;4.77;4.07;;;10.30;83.80;;;;;;5364393;26;20499;-71
2024/04/23 02:55:17;;;;;;;5.37;3.97;;;10.30;83.80;;;;;;5381420;26;20518;-72
2024/04/23 02:57:45;;;;;;;4.60;4.20;;;10.30;83.80;;;;;;5348955;26;20784;-71
2024/04/23 03:00:14;;;;;;;4.87;4.47;;;10.30;83.70;;;;;;5391927;26;20234;-72
2024/04/23 03:02:47;;;;;;;4.43;3.90;;;10.30;83.70;;;;;;5362926;26;20527;-72
2024/04/23 03:05:16;;;;;;;4.40;4.00;;;10.20;83.60;;;;;;5330075;26;20559;-71
2024/04/23 03:07:45;;;;;;;4.87;3.97;;;10.20;83.70;;;;;;5394401;26;20512;-71
2024/04/23 03:10:21;;;;;;;4.60;3.80;;;10.20;83.60;;;;;;5351875;26;20517;-70
2024/04/23 03:12:52;;;;;;;4.23;3.83;;;10.20;83.60;;;;;;5347502;26;20455;-71
2024/04/23 03:15:23;;;;;;;4.60;4.20;;;10.20;83.60;;;;;;5360753;26;20519;-72
2024/04/23 03:17:49;;;;;;;4.60;4.20;;;10.20;83.50;;;;;;5362826;26;20545;-71
2024/04/23 03:20:18;;;;;;;4.70;4.20;;;10.20;83.50;;;;;;5333635;26;20518;-71
2024/04/23 03:22:47;;;;;;;5.00;4.50;;;10.20;83.50;;;;;;5331929;26;21077;-71
2024/04/23 03:25:16;;;;;;;6.20;4.70;;;10.20;83.50;;;;;;5383248;26;20463;-71
2024/04/23 03:27:45;;;;;;;5.37;4.33;;;10.10;83.40;;;;;;5350075;26;20563;-71
2024/04/23 03:30:14;;;;;;;5.60;4.20;;;10.10;83.30;;;;;;5353227;26;20467;-72
2024/04/23 03:32:42;;;;;;;4.43;3.80;;;10.10;83.30;;;;;;5359547;26;20526;-72
2024/04/23 03:35:16;;;;;;;5.23;4.13;;;10.10;83.30;;;;;;5332468;26;21489;-72
2024/04/23 03:37:44;;;;;;;4.97;3.90;;;10.10;83.30;;;;;;5334100;26;20591;-71
2024/04/23 03:40:13;;;;;;;5.10;4.20;;;10.10;83.30;;;;;;5363356;26;20455;-71
2024/04/23 03:42:39;;;;;;;5.13;4.63;;;10.10;83.30;;;;;;5392100;26;20459;-69
2024/04/23 03:45:08;;;;;;;5.47;4.40;;;10.10;83.20;;;;;;5358482;26;20465;-72
2024/04/23 03:47:34;;;;;;;6.23;5.03;;;10.10;83.30;;;;;;5354960;26;20475;-70
2024/04/23 03:50:05;;;;;;;5.70;4.63;;;10.10;83.20;;;;;;5334139;26;20456;-72
2024/04/23 03:52:33;;;;;;;7.13;5.37;;;10.10;83.20;;;;;;5390821;26;20464;-72
2024/04/23 03:55:05;;;;;;;5.50;5.00;;;10.00;83.00;;;;;;5389215;26;20578;-71
2024/04/23 03:57:34;;;;;;;4.67;4.17;;;10.00;83.00;;;;;;5360816;26;20518;-71
2024/04/23 04:00:07;;;;;;;5.77;4.77;;;10.00;83.00;;;;;;5362903;26;21125;-71
2024/04/23 04:08:11;;;;;;;6.60;5.07;;;10.00;83.00;;;;;;5342883;26;20482;-71
2024/04/23 04:10:42;;;;;;;5.87;4.70;;;10.00;83.00;;;;;;5390973;26;21860;-70
2024/04/23 04:13:10;;;;;;;6.63;4.97;;;9.90;84.20;;;;;;5370624;26;20986;-72
2024/04/23 04:15:39;;;;;;;5.47;4.40;;;9.90;84.30;;;;;;5362435;26;20455;-71
2024/04/23 04:18:10;;;;;;;6.77;4.50;;;9.90;84.20;;;;;;5318950;26;20482;-71
2024/04/23 04:20:45;;;;;;;5.83;5.17;;;9.90;84.20;;;;;;5384834;26;21131;-72
2024/04/23 04:23:12;;;;;;;5.30;4.13;;;9.90;84.20;;;;;;5329700;26;20463;-72
2024/04/23 04:25:38;;;;;;;10.00;5.20;;;9.90;84.20;;;;;;5383110;26;20467;-71
2024/04/23 04:28:04;;;;;;;5.70;4.83;;;9.90;84.20;;;;;;5352967;26;21474;-70
2024/04/23 04:30:39;;;;;;;7.80;5.20;;;9.80;84.10;;;;;;5332418;26;21078;-71
2024/04/23 04:33:19;;;;;;;6.93;4.63;;;9.80;84.10;;;;;;5331010;26;20475;-70
2024/04/23 04:35:48;;;;;;;5.60;4.90;;;9.80;84.00;;;;;;5354521;26;20548;-72
2024/04/23 04:38:22;;;;;;;5.20;4.70;;;9.80;84.00;;;;;;5331215;26;20986;-71
2024/04/23 04:40:58;;;;;;;5.20;4.70;;;9.80;84.00;;;;;;5347867;26;20523;-72
2024/04/23 04:43:27;;;;;;;5.30;4.63;;;9.80;84.10;;;;;;5388862;26;20467;-70
2024/04/23 04:45:56;;;;;;;5.27;4.70;;;9.80;84.00;;;;;;5355188;26;21205;-69
2024/04/23 04:48:24;;;;;;;5.83;4.80;;;9.80;84.00;;;;;;5360487;26;20526;-71
2024/04/23 04:50:51;;;;;;;6.27;5.50;;;9.70;83.90;;;;;;5359599;26;20462;-71
2024/04/23 04:53:17;;;;;;;5.17;4.67;;;9.70;83.90;;;;;;5351325;26;20461;-71
2024/04/23 04:55:48;;;;;;;6.27;5.10;;;9.70;83.80;;;;;;5383894;26;20526;-72
2024/04/23 04:58:17;;;;;;;6.60;4.90;;;9.70;83.80;;;;;;5319924;26;21437;-71
2024/04/23 05:00:43;;;;;;;5.53;4.97;;;9.70;83.90;;;;;;5323598;26;20577;-71
2024/04/23 05:03:09;;;;;;;6.13;5.40;;;9.70;83.90;;;;;;5357842;26;20448;-70
2024/04/23 05:05:36;;;;;;;5.37;4.77;;;9.70;83.90;;;;;;5358426;26;20519;-72
2024/04/23 05:08:02;;;;;;;9.10;5.70;;;9.70;83.90;;;;;;5383403;26;20427;-72
2024/04/23 05:10:30;;;;;;;7.30;5.20;;;9.70;83.90;;;;;;5361345;26;21050;-72
2024/04/23 05:12:56;;;;;;;10.00;5.73;;;9.60;83.80;;;;;;5322974;26;20507;-71
2024/04/23 05:15:25;;;;;;;7.90;5.93;;;9.60;83.80;;;;;;5351607;26;20465;-70
2024/04/23 05:17:51;;;;;;;8.57;5.93;;;9.60;83.80;;;;;;5359182;26;20460;-71
2024/04/23 05:20:17;;;;;;;6.77;5.37;;;9.60;83.90;;;;;;5324461;26;21073;-71
2024/04/23 05:22:45;;;;;;;7.10;5.73;;;9.60;83.90;;;;;;5341354;26;20510;-70
2024/04/23 05:25:10;;;;;;;6.33;5.07;;;9.60;83.90;;;;;;5390096;26;20495;-70
2024/04/23 05:27:36;;;;;;;7.13;5.50;;;9.60;84.00;;;;;;5351100;26;20476;-69
2024/04/23 05:32:46;;;;;;;7.43;5.60;;;9.60;84.00;;;;;;5349796;26;20506;-69
2024/04/23 05:32:56;;;;;;;6.10;4.97;;;9.60;84.00;;;;;;5334400;26;20980;-69
2024/04/23 05:35:26;;;;;;;7.47;5.60;;;9.60;84.10;;;;;;5359702;26;20467;-69
2024/04/23 05:37:52;;;;;;;6.97;5.10;;;9.60;84.10;;;;;;5392797;26;20520;-68
2024/04/23 05:40:18;;;;;;;5.17;4.50;;;9.60;84.20;;;;;;5394335;26;20479;-68
2024/04/23 05:42:47;;;;;;;6.67;5.77;;;9.50;84.20;;;;;;5328182;26;20466;-69
2024/04/23 05:45:15;;;;;;;6.00;5.40;;;9.50;84.20;;;;;;5383176;26;20523;-68
2024/04/23 05:48:22;;;;;;;5.83;5.20;;;9.50;84.20;;;;;;5331124;26;20612;-70
2024/04/23 05:51:43;;;;;;;7.23;6.33;;;9.50;84.30;;;;;;5383963;26;20637;-69
2024/04/23 05:55:06;;;;;;;7.07;5.67;;;9.50;84.40;;;;;;5381606;26;20464;-69
2024/04/23 05:57:51;;;;;;;6.77;6.10;;;9.50;84.50;;;;;;5323542;26;20475;-69
2024/04/23 06:00:17;;;;;;;9.67;6.10;;;9.50;84.60;;;;;;5346660;26;21157;-70
2024/04/23 06:02:43;;;;;;;7.67;6.30;;;9.50;84.70;;;;;;5332227;26;20602;-69
2024/04/23 06:05:10;;;;;;;6.47;5.30;;;9.50;84.70;;;;;;5325124;26;20595;-70
2024/04/23 06:07:37;;;;;;;7.70;5.77;;;9.50;84.70;;;;;;5379022;26;20552;-70
2024/04/23 06:10:03;;;;;;;7.33;5.07;;;9.40;85.40;;;;;;5326468;26;20463;-70
2024/04/23 06:12:29;;;;;;;7.13;5.37;;;9.50;84.70;;;;;;5353323;26;20989;-70
2024/04/23 06:14:55;;;;;;;6.97;5.33;;;9.50;84.80;;;;;;5330800;26;21392;-70
2024/04/23 06:17:34;;;;;;;7.30;5.40;;;9.50;84.80;;;;;;5360711;26;20516;-70
2024/04/23 06:20:01;;;;;;;5.83;5.00;;;9.40;84.70;;;;;;5347291;26;20452;-70
2024/04/23 06:22:31;;;;;;;5.83;4.93;;;9.50;84.80;;;;;;5305072;26;20477;-70
2024/04/23 06:24:57;;;;;;;6.67;5.37;;;9.50;84.90;;;;;;5342926;26;20455;-70
2024/04/23 06:27:25;;;;;;;7.40;4.93;;;9.40;84.80;;;;;;5358132;26;20565;-69
2024/04/23 06:29:54;;;;;;;6.10;5.10;;;9.40;84.80;;;;;;5359431;26;20693;-70
2024/04/23 06:32:32;;;;;;;5.13;4.40;;;9.40;84.90;;;;;;5390800;26;20556;-70
2024/04/23 06:34:58;;;;;;;6.83;5.20;;;9.40;84.90;;;;;;5388341;26;20471;-70
2024/04/23 06:37:24;;;;;;;6.33;4.60;;;9.40;85.00;;;;;;5353634;26;21402;-70
2024/04/23 06:39:52;;;;;;;6.57;5.00;;;9.40;85.00;;;;;;5329753;26;20511;-70
2024/04/23 06:42:19;;;;;;;5.40;4.43;;;9.50;85.00;;;;;;5358105;26;20720;-70
2024/04/23 06:44:45;;;;;;;8.03;5.23;;;9.40;85.00;;;;;;5357453;26;20497;-70
2024/04/23 06:47:13;;;;;;;6.13;5.37;;;9.40;85.00;;;;;;5359183;26;20586;-70
2024/04/23 06:49:41;;;;;;;6.30;5.00;;;9.40;85.00;;;;;;5340153;26;20520;-70
2024/04/23 06:52:11;;;;;;;7.33;4.87;;;9.50;85.00;;;;;;5327037;26;20451;-70
2024/04/23 06:54:38;;;;;;;6.20;4.40;;;9.40;84.90;;;;;;5327408;26;20467;-70
2024/04/23 06:57:06;;;;;;;5.47;4.10;;;9.40;84.90;;;;;;5321278;26;20464;-70
2024/04/23 06:59:33;;;;;;;5.80;4.00;;;9.50;85.00;;;;;;5348576;26;20611;-70
2024/04/23 07:01:59;;;;;;;5.17;4.20;;;9.50;85.10;;;;;;5351897;26;21026;-70
2024/04/23 07:04:25;;;;;;;5.17;4.13;;;9.40;85.10;;;;;;5388365;26;21470;-70
2024/04/23 07:06:55;;;;;;;5.03;4.00;;;9.50;85.20;;;;;;5320652;26;20496;-70
2024/04/23 07:09:21;;;;;;;4.20;3.80;;;9.50;85.30;;;;;;5348423;26;20609;-70
2024/04/23 07:11:47;;;;;;;6.20;4.60;;;9.50;85.30;;;;;;5348841;26;20494;-70
2024/04/23 07:14:13;;;;;;;5.00;4.30;;;9.50;85.20;;;;;;5333029;26;20451;-70
2024/04/23 07:16:45;;;;;;;4.97;4.20;;;9.50;85.20;;;;;;5360758;26;20599;-70
2024/04/23 07:19:12;;;;;;;4.40;3.87;;;9.50;85.10;;;;;;5320415;26;20482;-70
2024/04/23 07:21:38;;;;;;;5.17;3.87;;;9.50;85.20;;;;;;5361303;26;20506;-70
2024/04/23 07:24:05;;;;;;;5.70;4.47;;;9.50;85.20;;;;;;5335795;26;20506;-70
2024/04/23 07:26:31;;;;;;;4.40;3.80;;;9.50;85.20;;;;;;5383136;26;20700;-70
2024/04/23 07:28:57;;;;;;;4.83;3.60;;;9.50;85.20;;;;;;5323173;26;20606;-70
2024/04/23 07:31:24;;;;;;;5.30;3.97;;;9.50;85.30;;;;;;5331447;26;20560;-70
2024/04/23 07:33:50;;;;;;;4.53;4.13;;;9.50;85.30;;;;;;5362028;21;20520;-32
2024/04/23 07:36:16;;;;;;;7.47;4.10;;;9.50;85.20;;;;;;5329972;26;20480;-39
2024/04/23 07:38:42;;;;;;;4.67;4.00;;;9.50;85.20;;;;;;5328672;26;20527;-32
2024/04/23 07:41:08;;;;;;;4.40;4.00;;;9.50;85.20;;;;;;5358446;26;20607;-39
2024/04/23 07:43:37;;;;;;;5.10;4.00;;;9.50;85.20;;;;;;5329188;26;21698;-41
2024/04/23 07:46:03;;;;;;;7.77;4.57;;;9.50;85.20;;;;;;5328897;26;21185;-41
2024/04/23 07:48:29;;;;;;;4.23;3.50;;;9.50;85.10;;;;;;5329587;26;20453;-39
2024/04/23 07:50:58;;;;;;;5.10;4.10;;;9.50;85.10;;;;;;5367109;26;20579;-38
2024/04/23 07:53:27;;;;;;;4.80;3.93;;;9.50;85.10;;;;;;5330416;26;21306;-38
2024/04/23 07:55:57;;;;;;;7.10;4.60;;;9.50;85.10;;;;;;5340545;26;20531;-37
2024/04/23 07:58:22;;;;;;;4.97;3.63;;;9.50;85.00;;;;;;5365116;26;20474;-42
2024/04/23 08:00:49;;;;;;;5.07;4.23;;;9.50;85.20;;;;;;5349199;26;20566;-40
2024/04/23 08:03:17;;;;;;;5.10;4.60;;;9.50;85.00;;;;;;5395703;26;20605;-41
2024/04/23 08:05:44;;;;;;;4.50;4.10;;;9.50;85.00;;;;;;5336790;26;20459;-40
2024/04/23 08:08:10;;;;;;;5.53;4.87;;;9.50;85.00;;;;;;5299250;26;21455;-39
2024/04/23 08:10:40;;;;;;;5.43;4.20;;;9.50;84.90;;;;;;5360495;26;20600;-40
2024/04/23 08:13:09;;;;;;;4.40;3.97;;;9.50;84.60;;;;;;5376337;26;20762;-38
2024/04/23 08:15:36;;;;;;;5.27;3.70;;;9.50;84.50;;;;;;5376525;26;20849;-37
2024/04/23 08:18:05;;;;;;;6.27;4.27;;;9.50;84.50;;;;;;5370084;26;20579;-41
2024/04/23 08:20:39;;;;;;;4.67;3.70;;;9.60;84.60;;;;;;5364834;26;21345;-38
2024/04/23 08:23:10;;;;;;;6.13;4.10;;;9.60;84.70;;;;;;5322946;26;20560;-41
2024/04/23 08:25:42;;;;;;;5.80;4.07;;;9.60;84.60;;;;;;5337815;26;20468;-41
2024/04/23 08:28:08;;;;;;;4.37;3.20;;;9.60;84.70;;;;;;5397958;26;20610;-38
2024/04/23 08:30:39;;;;;;;5.63;4.10;;;9.60;84.60;;;;;;5395783;26;21110;-40
2024/04/23 08:33:05;;;;;;;5.00;4.07;;;9.60;84.70;;;;;;5324426;26;20529;-38
2024/04/23 08:35:31;;;;;;;4.10;3.47;;;9.60;84.70;;;;;;5336075;26;20480;-37
2024/04/23 08:37:57;;;;;;;5.63;3.67;;;9.60;84.70;;;;;;5382445;26;20539;-41
2024/04/23 08:40:26;;;;;;;5.43;4.07;;;9.70;84.80;;;;;;5387721;26;20468;-40
2024/04/23 08:42:57;;;;;;;6.63;3.90;;;9.70;84.70;;;;;;5381065;26;20472;-41
2024/04/23 08:45:26;;;;;;;4.23;3.30;;;9.70;84.60;;;;;;5333803;26;20459;-40
2024/04/23 08:47:53;;;;;;;5.90;3.93;;;9.70;84.60;;;;;;5393590;26;20501;-40
2024/04/23 08:50:22;;;;;;;5.13;4.20;;;9.80;84.70;;;;;;5365784;26;20697;-36
2024/04/23 08:52:49;;;;;;;4.57;4.07;;;9.80;84.70;;;;;;5358973;26;21418;-38
2024/04/23 08:55:17;;;;;;;4.80;4.13;;;9.80;84.50;;;;;;5359959;26;21181;-38
2024/04/23 08:57:46;;;;;;;4.97;3.70;;;9.80;84.20;;;;;;5328643;26;21226;-41
2024/04/23 09:00:15;;;;;;;5.20;3.70;;;9.90;84.20;;;;;;5360046;26;20821;-41
2024/04/23 09:02:43;;;;;;;6.40;3.77;;;9.90;84.10;;;;;;5379157;26;20467;-39
2024/04/23 09:05:11;;;;;;;5.17;3.97;;;9.90;84.30;;;;;;5363309;26;20554;-41
2024/04/23 09:07:38;;;;;;;6.93;4.13;;;9.90;84.10;;;;;;5351201;26;20479;-39
2024/04/23 09:10:06;;;;;;;5.47;3.97;;;10.00;83.10;;;;;;5326277;26;21360;-38
2024/04/23 09:12:34;;;;;;;4.57;4.03;;;10.00;83.00;;;;;;5346541;26;21552;-40
2024/04/23 09:15:00;;;;;;;5.37;3.63;;;10.00;83.70;;;;;;5344980;26;20572;-40
2024/04/23 09:17:27;;;;;;;4.77;4.30;;;10.10;82.90;;;;;;5286470;26;20541;-38
2024/04/23 09:19:54;;;;;;;4.23;3.53;;;10.10;82.80;;;;;;5394114;26;20507;-39
2024/04/23 09:22:23;;;;;;;5.20;3.50;;;10.10;82.00;;;;;;5366143;26;20598;-40
2024/04/23 09:25:02;;;;;;;4.73;3.33;;;10.20;82.00;;;;;;5299951;26;20476;-41
2024/04/23 09:27:32;;;;;;;6.90;3.83;;;10.20;82.20;;;;;;5358449;26;21057;-42
2024/04/23 09:29:58;;;;;;;4.30;3.77;;;10.20;81.80;;;;;;5392374;26;20522;-40
2024/04/23 09:32:24;;;;;;;5.60;3.63;;;10.30;83.00;;;;;;5391960;26;21447;-40
2024/04/23 09:34:54;;;;;;;4.00;3.47;;;10.30;82.30;;;;;;5313031;26;20519;-41
2024/04/23 09:37:21;;;;;;;4.07;3.00;;;10.30;82.20;;;;;;5347303;26;21572;-39
2024/04/23 09:39:48;;;;;;;4.43;2.80;;;10.40;82.20;;;;;;5335467;26;20459;-41
2024/04/23 09:42:24;;;;;;;3.27;2.97;;;10.40;82.30;;;;;;5345476;26;20843;-38
2024/04/23 09:44:50;;;;;;;4.20;3.27;;;10.40;82.30;;;;;;5305355;26;20535;-38
2024/04/23 09:47:19;;;;;;;4.60;3.00;;;10.50;82.30;;;;;;5361001;26;20510;-41
2024/04/23 09:49:52;;;;;;;10.13;2.73;;;10.50;82.10;;;;;;5393111;26;20455;-41
2024/04/23 09:52:31;;;;;;;3.70;3.17;;;10.60;81.90;;;;;;5391495;26;20527;-43
2024/04/23 09:55:02;;;;;;;4.10;2.93;;;10.60;81.60;;;;;;5392583;26;20792;-41
2024/04/23 09:57:34;;;;;;;4.63;3.20;;;10.60;81.30;;;;;;5392278;26;20463;-42
2024/04/23 10:00:02;;;;;;;3.30;3.00;;;10.70;81.50;;;;;;5382523;26;20967;-43
2024/04/23 10:02:36;;;;;;;3.80;3.13;;;10.70;81.50;;;;;;5364373;26;20603;-42
2024/04/23 10:05:14;;;;;;;2.47;2.27;;;10.70;81.40;;;;;;5381633;26;20465;-40
2024/04/23 10:07:49;;;;;;;4.10;3.00;;;10.80;81.40;;;;;;5346776;26;20589;-41
2024/04/23 10:10:20;;;;;;;4.50;2.53;;;10.80;81.30;;;;;;5371622;26;20488;-41
2024/04/23 10:12:47;;;;;;;3.07;2.77;;;10.90;81.30;;;;;;5356744;26;20469;-38
2024/04/23 10:15:42;;;;;;;3.53;3.03;;;10.90;81.30;;;;;;5355654;26;20453;-41
2024/04/23 10:18:27;;;;;;;3.93;3.27;;;11.00;81.40;;;;;;5346683;26;20520;-40
2024/04/23 10:21:18;;;;;;;3.83;2.90;;;11.00;81.10;;;;;;5348397;26;20550;-38
2024/04/23 10:23:48;;;;;;;6.07;2.90;;;11.00;81.10;;;;;;5372167;26;20456;-39
2024/04/23 10:26:14;;;;;;;3.37;2.83;;;11.10;81.00;;;;;;5324246;26;20457;-40
2024/04/23 10:28:47;;;;;;;3.40;3.10;;;11.10;80.90;;;;;;5350415;26;20516;-39
2024/04/23 10:31:14;;;;;;;3.70;2.70;;;11.10;80.80;;;;;;5325954;26;20533;-39
2024/04/23 10:33:41;;;;;;;4.17;3.13;;;11.10;80.80;;;;;;5340955;26;20494;-40
2024/04/23 10:36:19;;;;;;;3.17;2.87;;;11.20;81.00;;;;;;5384023;26;20484;-40
2024/04/23 10:38:53;;;;;;;3.30;3.00;;;11.20;81.00;;;;;;5360762;26;20463;-40
2024/04/23 10:41:24;;;;;;;4.00;3.13;;;11.20;81.00;;;;;;5366916;26;20897;-39
2024/04/23 10:43:52;;;;;;;3.70;3.10;;;11.20;80.90;;;;;;5342387;26;20662;-41
2024/04/23 10:46:21;;;;;;;4.13;3.03;;;11.20;80.90;;;;;;5348371;26;20479;-40
2024/04/23 10:48:57;;;;;;;6.47;3.00;;;11.30;81.00;;;;;;5394019;26;20618;-39
2024/04/23 10:51:25;;;;;;;4.50;3.03;;;11.30;81.00;;;;;;5283731;26;20539;-41
2024/04/23 10:53:52;;;;;;;3.07;2.77;;;11.30;81.00;;;;;;5363806;26;20475;-40
2024/04/23 10:56:25;;;;;;;4.30;2.80;;;11.30;80.90;;;;;;5327959;26;20455;-42
2024/04/23 10:59:07;;;;;;;4.23;3.27;;;11.40;81.20;;;;;;5365189;26;20483;-39
2024/04/23 11:01:46;;;;;;;3.83;2.70;;;11.40;81.00;;;;;;5325419;26;20481;-38
2024/04/23 11:04:14;;;;;;;2.93;2.70;;;11.40;79.90;;;;;;5361152;26;20601;-39
2024/04/23 11:06:41;;;;;;;3.17;2.87;;;11.40;80.20;;;;;;5333690;26;20472;-40
2024/04/23 11:09:22;;;;;;;2.97;2.67;;;11.50;80.30;;;;;;5371824;26;20559;-41
2024/04/23 11:11:57;;;;;;;3.50;2.97;;;11.50;80.40;;;;;;5355992;26;20586;-39
2024/04/23 11:14:36;;;;;;;3.17;2.87;;;11.60;80.50;;;;;;5359270;26;20526;-40
2024/04/23 11:17:03;;;;;;;2.97;2.67;;;11.60;80.20;;;;;;5354326;26;20452;-40
2024/04/23 11:19:39;;;;;;;3.83;2.63;;;11.60;80.20;;;;;;5379530;26;20467;-42
2024/04/23 11:22:15;;;;;;;3.33;3.00;;;11.60;79.70;;;;;;5358830;26;20454;-42
2024/04/23 11:24:51;;;;;;;3.63;3.00;;;11.70;79.90;;;;;;5374031;26;20544;-41
2024/04/23 11:27:18;;;;;;;2.97;2.67;;;11.70;79.80;;;;;;5371186;26;20457;-41
2024/04/23 11:29:48;;;;;;;4.10;2.83;;;11.80;80.00;;;;;;5276480;26;20468;-41
2024/04/23 11:32:18;;;;;;;2.87;2.53;;;11.80;79.90;;;;;;5331603;26;20586;-39
2024/04/23 11:34:48;;;;;;;4.53;2.63;;;11.80;79.90;;;;;;5347084;26;20526;-41
2024/04/23 11:37:26;;;;;;;2.87;2.50;;;11.80;79.90;;;;;;5371718;26;20529;-41
2024/04/23 11:39:58;;;;;;;3.53;3.23;;;11.90;79.70;;;;;;5374668;26;21570;-42
2024/04/23 11:42:28;;;;;;;2.77;2.57;;;11.90;79.50;;;;;;5319146;26;20464;-38
2024/04/23 11:44:58;;;;;;;4.30;2.87;;;12.00;79.30;;;;;;5368964;26;20583;-41
2024/04/23 11:47:27;;;;;;;3.90;3.00;;;12.00;79.10;;;;;;5372224;26;20465;-41
2024/04/23 11:49:54;;;;;;;3.30;3.00;;;12.00;79.10;;;;;;5379536;26;21171;-40
2024/04/23 11:52:23;;;;;;;4.10;3.10;;;12.00;79.00;;;;;;5386359;26;21611;-42
2024/04/23 11:54:52;;;;;;;4.07;3.03;;;12.10;78.90;;;;;;5354204;26;20601;-41
2024/04/23 11:57:18;;;;;;;3.67;3.07;;;12.10;78.90;;;;;;5347617;26;20465;-40
2024/04/23 11:59:45;;;;;;;3.43;3.00;;;12.10;78.80;;;;;;5377160;26;20474;-43
2024/04/23 12:02:13;;;;;;;3.73;3.43;;;12.10;78.80;;;;;;5336268;26;20559;-43
2024/04/23 12:04:41;;;;;;;4.20;3.80;;;12.20;78.80;;;;;;5381952;26;20466;-43
2024/04/23 12:07:09;;;;;;;3.70;3.23;;;12.20;78.70;;;;;;5345957;26;20541;-40
2024/04/23 12:09:37;;;;;;;5.50;3.67;;;12.20;78.40;;;;;;5382341;26;20463;-41
2024/04/23 12:12:03;;;;;;;3.63;3.30;;;12.20;78.40;;;;;;5312119;26;20459;-42
2024/04/23 12:14:32;;;;;;;5.10;3.60;;;12.20;78.30;;;;;;5330616;26;20994;-41
2024/04/23 12:17:06;;;;;;;3.80;3.50;;;12.20;78.20;;;;;;5297659;26;20556;-43
2024/04/23 12:19:36;;;;;;;4.33;3.40;;;12.30;78.10;;;;;;5301598;26;20602;-42
2024/04/23 12:22:12;;;;;;;4.10;3.63;;;12.30;78.10;;;;;;5335876;26;20467;-41
2024/04/23 12:24:39;;;;;;;4.53;3.67;;;12.30;78.10;;;;;;5361841;26;20590;-42
2024/04/23 12:27:05;;;;;;;4.67;3.57;;;12.30;78.40;;;;;;5381924;26;21155;-41
2024/04/23 12:29:33;;;;;;;3.70;3.03;;;12.40;78.20;;;;;;5315374;26;21387;-43
2024/04/23 12:32:02;;;;;;;4.00;3.70;;;12.30;77.90;;;;;;5344580;26;20469;-40
2024/04/23 12:34:28;;;;;;;4.53;3.60;;;12.40;78.00;;;;;;5378047;26;20599;-40
2024/04/23 12:36:56;;;;;;;4.37;3.90;;;12.40;77.70;;;;;;5377766;26;20564;-40
2024/04/23 12:39:26;;;;;;;3.87;3.40;;;12.50;77.90;;;;;;5325753;26;20552;-42
2024/04/23 12:41:53;;;;;;;7.67;3.60;;;12.40;77.40;;;;;;5339930;26;21082;-41
2024/04/23 12:44:19;;;;;;;4.23;3.73;;;12.50;77.30;;;;;;5304104;26;20467;-39
2024/04/23 12:46:45;;;;;;;4.47;3.57;;;12.50;77.30;;;;;;5341337;26;21497;-42
2024/04/23 12:49:11;;;;;;;4.37;3.70;;;12.50;77.30;;;;;;5368017;26;20537;-40
2024/04/23 12:51:38;;;;;;;4.13;3.73;;;12.50;77.30;;;;;;5394471;26;20952;-42
2024/04/23 12:54:08;;;;;;;3.97;3.57;;;12.60;77.30;;;;;;5385083;26;20467;-43
2024/04/23 12:56:39;;;;;;;4.70;3.20;;;12.60;77.20;;;;;;5344983;26;20469;-42
2024/04/23 12:59:09;;;;;;;3.97;3.67;;;12.60;77.10;;;;;;5341022;26;21224;-40
2024/04/23 13:01:37;;;;;;;3.57;3.27;;;12.60;77.00;;;;;;5374462;26;21548;-42
2024/04/23 13:04:03;;;;;;;4.87;4.10;;;12.60;77.00;;;;;;5361372;26;20463;-42
2024/04/23 13:06:36;;;;;;;4.30;3.93;;;12.60;77.00;;;;;;5373898;26;20484;-39
2024/04/23 13:09:03;;;;;;;4.30;3.90;;;12.70;77.00;;;;;;5321242;26;20451;-39
2024/04/23 13:11:29;;;;;;;4.70;3.97;;;12.70;77.20;;;;;;5363587;26;20587;-41